sensor_id;sensor_type;location;lat;lon;timestamp;P1;durP1;ratioP1;P2;durP2;ratioP2
54247;SDS011;40161;39.768;2.722;2023-11-21T00:02:20;12.43;;;8.32;;
54247;SDS011;40161;39.768;2.722;2023-11-21T00:04:47;9.70;;;7.95;;
54247;SDS011;40161;39.768;2.722;2023-11-21T00:07:13;13.05;;;8.43;;
54247;SDS011;40161;39.768;2.722;2023-11-21T00:09:40;13.05;;;8.75;;
54247;SDS011;40161;39.768;2.722;2023-11-21T00:12:06;10.70;;;7.85;;
54247;SDS011;40161;39.768;2.722;2023-11-21T00:14:35;12.07;;;9.10;;
54247;SDS011;40161;39.768;2.722;2023-11-21T00:17:01;10.65;;;7.97;;
54247;SDS011;40161;39.768;2.722;2023-11-21T00:19:28;9.85;;;7.60;;
54247;SDS011;40161;39.768;2.722;2023-11-21T00:21:53;10.98;;;7.38;;
54247;SDS011;40161;39.768;2.722;2023-11-21T00:24:19;9.50;;;7.20;;
54247;SDS011;40161;39.768;2.722;2023-11-21T00:26:44;9.40;;;6.78;;
54247;SDS011;40161;39.768;2.722;2023-11-21T00:29:10;9.65;;;7.38;;
54247;SDS011;40161;39.768;2.722;2023-11-21T00:31:36;9.30;;;6.55;;
54247;SDS011;40161;39.768;2.722;2023-11-21T00:34:05;11.63;;;7.75;;
54247;SDS011;40161;39.768;2.722;2023-11-21T00:36:31;9.02;;;6.95;;
54247;SDS011;40161;39.768;2.722;2023-11-21T00:38:57;10.35;;;7.30;;
54247;SDS011;40161;39.768;2.722;2023-11-21T00:41:23;8.07;;;6.10;;
54247;SDS011;40161;39.768;2.722;2023-11-21T00:43:48;7.35;;;5.57;;
54247;SDS011;40161;39.768;2.722;2023-11-21T00:46:14;7.07;;;5.63;;
54247;SDS011;40161;39.768;2.722;2023-11-21T00:48:39;7.80;;;5.47;;
54247;SDS011;40161;39.768;2.722;2023-11-21T00:51:05;7.32;;;4.80;;
54247;SDS011;40161;39.768;2.722;2023-11-21T00:53:31;7.72;;;5.93;;
54247;SDS011;40161;39.768;2.722;2023-11-21T00:55:57;7.22;;;5.60;;
54247;SDS011;40161;39.768;2.722;2023-11-21T00:58:23;8.52;;;6.00;;
54247;SDS011;40161;39.768;2.722;2023-11-21T01:00:50;8.95;;;5.95;;
54247;SDS011;40161;39.768;2.722;2023-11-21T01:03:16;9.43;;;6.30;;
54247;SDS011;40161;39.768;2.722;2023-11-21T01:05:41;8.77;;;5.68;;
54247;SDS011;40161;39.768;2.722;2023-11-21T01:08:07;8.68;;;5.30;;
54247;SDS011;40161;39.768;2.722;2023-11-21T01:10:33;8.10;;;5.18;;
54247;SDS011;40161;39.768;2.722;2023-11-21T01:12:59;8.32;;;5.60;;
54247;SDS011;40161;39.768;2.722;2023-11-21T01:15:25;8.77;;;6.00;;
54247;SDS011;40161;39.768;2.722;2023-11-21T01:17:51;7.90;;;4.57;;
54247;SDS011;40161;39.768;2.722;2023-11-21T01:20:17;9.43;;;5.22;;
54247;SDS011;40161;39.768;2.722;2023-11-21T01:22:43;9.38;;;5.05;;
54247;SDS011;40161;39.768;2.722;2023-11-21T01:25:09;6.80;;;4.80;;
54247;SDS011;40161;39.768;2.722;2023-11-21T01:27:36;7.10;;;4.45;;
54247;SDS011;40161;39.768;2.722;2023-11-21T01:30:05;8.50;;;4.28;;
54247;SDS011;40161;39.768;2.722;2023-11-21T01:32:32;7.20;;;4.57;;
54247;SDS011;40161;39.768;2.722;2023-11-21T01:34:59;6.75;;;4.03;;
54247;SDS011;40161;39.768;2.722;2023-11-21T01:37:24;6.20;;;4.05;;
54247;SDS011;40161;39.768;2.722;2023-11-21T01:39:53;8.48;;;5.20;;
54247;SDS011;40161;39.768;2.722;2023-11-21T01:42:21;8.45;;;5.20;;
54247;SDS011;40161;39.768;2.722;2023-11-21T01:44:47;9.00;;;6.18;;
54247;SDS011;40161;39.768;2.722;2023-11-21T01:47:13;11.57;;;6.22;;
54247;SDS011;40161;39.768;2.722;2023-11-21T01:49:40;9.25;;;6.10;;
54247;SDS011;40161;39.768;2.722;2023-11-21T01:52:09;8.73;;;6.32;;
54247;SDS011;40161;39.768;2.722;2023-11-21T01:54:36;9.02;;;6.43;;
54247;SDS011;40161;39.768;2.722;2023-11-21T01:57:03;9.73;;;7.00;;
54247;SDS011;40161;39.768;2.722;2023-11-21T01:59:37;11.05;;;7.47;;
54247;SDS011;40161;39.768;2.722;2023-11-21T02:04:30;10.43;;;7.03;;
54247;SDS011;40161;39.768;2.722;2023-11-21T02:06:57;9.75;;;6.30;;
54247;SDS011;40161;39.768;2.722;2023-11-21T02:09:24;8.98;;;6.57;;
54247;SDS011;40161;39.768;2.722;2023-11-21T02:11:54;9.98;;;7.47;;
54247;SDS011;40161;39.768;2.722;2023-11-21T02:14:20;9.23;;;6.38;;
54247;SDS011;40161;39.768;2.722;2023-11-21T02:16:48;9.85;;;6.80;;
54247;SDS011;40161;39.768;2.722;2023-11-21T02:19:16;10.55;;;7.30;;
54247;SDS011;40161;39.768;2.722;2023-11-21T02:21:54;9.70;;;7.28;;
54247;SDS011;40161;39.768;2.722;2023-11-21T02:24:25;9.93;;;7.30;;
54247;SDS011;40161;39.768;2.722;2023-11-21T02:26:52;11.82;;;7.82;;
54247;SDS011;40161;39.768;2.722;2023-11-21T02:29:18;10.68;;;8.15;;
54247;SDS011;40161;39.768;2.722;2023-11-21T02:31:47;10.15;;;7.40;;
54247;SDS011;40161;39.768;2.722;2023-11-21T02:34:17;10.20;;;7.35;;
54247;SDS011;40161;39.768;2.722;2023-11-21T02:36:46;11.02;;;8.05;;
54247;SDS011;40161;39.768;2.722;2023-11-21T02:39:15;10.95;;;7.80;;
54247;SDS011;40161;39.768;2.722;2023-11-21T02:41:42;10.10;;;7.57;;
54247;SDS011;40161;39.768;2.722;2023-11-21T02:44:08;10.82;;;7.88;;
54247;SDS011;40161;39.768;2.722;2023-11-21T02:46:35;11.07;;;8.48;;
54247;SDS011;40161;39.768;2.722;2023-11-21T02:49:01;11.25;;;8.00;;
54247;SDS011;40161;39.768;2.722;2023-11-21T02:51:35;10.43;;;7.75;;
54247;SDS011;40161;39.768;2.722;2023-11-21T02:54:01;10.38;;;7.15;;
54247;SDS011;40161;39.768;2.722;2023-11-21T02:56:30;10.02;;;8.05;;
54247;SDS011;40161;39.768;2.722;2023-11-21T02:58:56;11.80;;;7.85;;
54247;SDS011;40161;39.768;2.722;2023-11-21T03:01:22;10.45;;;7.32;;
54247;SDS011;40161;39.768;2.722;2023-11-21T03:03:49;9.57;;;7.25;;
54247;SDS011;40161;39.768;2.722;2023-11-21T03:06:16;10.35;;;7.47;;
54247;SDS011;40161;39.768;2.722;2023-11-21T03:08:43;9.98;;;7.40;;
54247;SDS011;40161;39.768;2.722;2023-11-21T03:11:08;11.38;;;7.28;;
54247;SDS011;40161;39.768;2.722;2023-11-21T03:13:34;9.75;;;7.15;;
54247;SDS011;40161;39.768;2.722;2023-11-21T03:15:59;9.52;;;7.22;;
54247;SDS011;40161;39.768;2.722;2023-11-21T03:18:25;9.40;;;7.18;;
54247;SDS011;40161;39.768;2.722;2023-11-21T03:20:54;10.10;;;7.18;;
54247;SDS011;40161;39.768;2.722;2023-11-21T03:23:19;9.80;;;7.65;;
54247;SDS011;40161;39.768;2.722;2023-11-21T03:25:45;9.88;;;7.30;;
54247;SDS011;40161;39.768;2.722;2023-11-21T03:28:11;9.95;;;7.18;;
54247;SDS011;40161;39.768;2.722;2023-11-21T03:30:36;10.18;;;7.55;;
54247;SDS011;40161;39.768;2.722;2023-11-21T03:33:02;11.60;;;7.25;;
54247;SDS011;40161;39.768;2.722;2023-11-21T03:35:27;10.48;;;7.68;;
54247;SDS011;40161;39.768;2.722;2023-11-21T03:37:53;10.18;;;7.90;;
54247;SDS011;40161;39.768;2.722;2023-11-21T03:40:19;11.30;;;7.40;;
54247;SDS011;40161;39.768;2.722;2023-11-21T03:42:46;9.80;;;7.10;;
54247;SDS011;40161;39.768;2.722;2023-11-21T03:45:12;10.40;;;7.70;;
54247;SDS011;40161;39.768;2.722;2023-11-21T03:47:40;9.63;;;6.75;;
54247;SDS011;40161;39.768;2.722;2023-11-21T03:50:07;9.57;;;6.82;;
54247;SDS011;40161;39.768;2.722;2023-11-21T03:52:34;9.68;;;7.00;;
54247;SDS011;40161;39.768;2.722;2023-11-21T03:55:00;11.85;;;8.00;;
54247;SDS011;40161;39.768;2.722;2023-11-21T03:57:29;10.00;;;7.28;;
54247;SDS011;40161;39.768;2.722;2023-11-21T03:59:54;11.68;;;8.10;;
54247;SDS011;40161;39.768;2.722;2023-11-21T04:02:20;12.45;;;8.10;;
54247;SDS011;40161;39.768;2.722;2023-11-21T04:04:45;9.38;;;6.95;;
54247;SDS011;40161;39.768;2.722;2023-11-21T04:07:11;10.75;;;7.00;;
54247;SDS011;40161;39.768;2.722;2023-11-21T04:09:38;10.88;;;7.60;;
54247;SDS011;40161;39.768;2.722;2023-11-21T04:12:04;12.40;;;8.55;;
54247;SDS011;40161;39.768;2.722;2023-11-21T04:14:30;13.45;;;8.30;;
54247;SDS011;40161;39.768;2.722;2023-11-21T04:16:56;12.80;;;8.63;;
54247;SDS011;40161;39.768;2.722;2023-11-21T04:19:22;13.20;;;8.25;;
54247;SDS011;40161;39.768;2.722;2023-11-21T04:21:48;11.50;;;7.75;;
54247;SDS011;40161;39.768;2.722;2023-11-21T04:24:13;13.70;;;8.18;;
54247;SDS011;40161;39.768;2.722;2023-11-21T04:26:39;12.10;;;7.88;;
54247;SDS011;40161;39.768;2.722;2023-11-21T04:29:04;12.73;;;7.32;;
54247;SDS011;40161;39.768;2.722;2023-11-21T04:31:30;11.45;;;7.43;;
54247;SDS011;40161;39.768;2.722;2023-11-21T04:33:56;11.15;;;7.32;;
54247;SDS011;40161;39.768;2.722;2023-11-21T04:36:21;10.05;;;7.18;;
54247;SDS011;40161;39.768;2.722;2023-11-21T04:38:47;10.75;;;7.13;;
54247;SDS011;40161;39.768;2.722;2023-11-21T04:41:13;11.13;;;6.97;;
54247;SDS011;40161;39.768;2.722;2023-11-21T04:43:38;11.63;;;7.07;;
54247;SDS011;40161;39.768;2.722;2023-11-21T04:46:04;10.70;;;6.53;;
54247;SDS011;40161;39.768;2.722;2023-11-21T04:48:29;9.77;;;6.07;;
54247;SDS011;40161;39.768;2.722;2023-11-21T04:50:55;8.82;;;5.88;;
54247;SDS011;40161;39.768;2.722;2023-11-21T04:53:21;8.85;;;6.07;;
54247;SDS011;40161;39.768;2.722;2023-11-21T04:55:46;8.07;;;5.78;;
54247;SDS011;40161;39.768;2.722;2023-11-21T04:58:13;9.13;;;5.82;;
54247;SDS011;40161;39.768;2.722;2023-11-21T05:00:39;8.93;;;5.57;;
54247;SDS011;40161;39.768;2.722;2023-11-21T05:03:04;7.55;;;5.45;;
54247;SDS011;40161;39.768;2.722;2023-11-21T05:05:32;7.75;;;5.22;;
54247;SDS011;40161;39.768;2.722;2023-11-21T05:07:59;8.45;;;5.50;;
54247;SDS011;40161;39.768;2.722;2023-11-21T05:10:24;8.30;;;6.05;;
54247;SDS011;40161;39.768;2.722;2023-11-21T05:12:50;9.05;;;4.95;;
54247;SDS011;40161;39.768;2.722;2023-11-21T05:15:16;7.05;;;4.07;;
54247;SDS011;40161;39.768;2.722;2023-11-21T05:17:45;6.47;;;3.13;;
54247;SDS011;40161;39.768;2.722;2023-11-21T05:20:11;4.03;;;2.00;;
54247;SDS011;40161;39.768;2.722;2023-11-21T05:22:38;4.93;;;2.05;;
54247;SDS011;40161;39.768;2.722;2023-11-21T05:25:05;6.30;;;2.25;;
54247;SDS011;40161;39.768;2.722;2023-11-21T05:27:32;5.28;;;2.50;;
54247;SDS011;40161;39.768;2.722;2023-11-21T05:29:58;5.15;;;1.67;;
54247;SDS011;40161;39.768;2.722;2023-11-21T05:32:24;3.38;;;0.90;;
54247;SDS011;40161;39.768;2.722;2023-11-21T05:34:50;2.42;;;0.80;;
54247;SDS011;40161;39.768;2.722;2023-11-21T05:37:15;2.05;;;0.85;;
54247;SDS011;40161;39.768;2.722;2023-11-21T05:39:42;2.15;;;0.80;;
54247;SDS011;40161;39.768;2.722;2023-11-21T05:42:08;1.40;;;0.60;;
54247;SDS011;40161;39.768;2.722;2023-11-21T05:44:36;3.13;;;0.90;;
54247;SDS011;40161;39.768;2.722;2023-11-21T05:47:06;1.92;;;0.82;;
54247;SDS011;40161;39.768;2.722;2023-11-21T05:49:32;2.50;;;0.85;;
54247;SDS011;40161;39.768;2.722;2023-11-21T05:51:58;2.25;;;0.88;;
54247;SDS011;40161;39.768;2.722;2023-11-21T05:54:24;3.40;;;1.00;;
54247;SDS011;40161;39.768;2.722;2023-11-21T05:56:51;1.45;;;0.55;;
54247;SDS011;40161;39.768;2.722;2023-11-21T05:59:17;2.60;;;0.55;;
54247;SDS011;40161;39.768;2.722;2023-11-21T06:01:42;3.60;;;0.60;;
54247;SDS011;40161;39.768;2.722;2023-11-21T06:04:08;1.88;;;0.45;;
54247;SDS011;40161;39.768;2.722;2023-11-21T06:06:34;6.50;;;0.77;;
54247;SDS011;40161;39.768;2.722;2023-11-21T06:09:00;2.78;;;0.60;;
54247;SDS011;40161;39.768;2.722;2023-11-21T06:11:26;3.13;;;0.68;;
54247;SDS011;40161;39.768;2.722;2023-11-21T06:13:51;3.83;;;0.65;;
54247;SDS011;40161;39.768;2.722;2023-11-21T06:16:18;3.53;;;1.00;;
54247;SDS011;40161;39.768;2.722;2023-11-21T06:18:47;3.65;;;0.80;;
54247;SDS011;40161;39.768;2.722;2023-11-21T06:21:13;2.78;;;0.75;;
54247;SDS011;40161;39.768;2.722;2023-11-21T06:23:38;3.75;;;0.88;;
54247;SDS011;40161;39.768;2.722;2023-11-21T06:26:05;5.75;;;1.50;;
54247;SDS011;40161;39.768;2.722;2023-11-21T06:28:31;4.82;;;1.60;;
54247;SDS011;40161;39.768;2.722;2023-11-21T06:30:57;4.72;;;1.40;;
54247;SDS011;40161;39.768;2.722;2023-11-21T06:33:23;3.55;;;1.15;;
54247;SDS011;40161;39.768;2.722;2023-11-21T06:35:52;4.18;;;0.98;;
54247;SDS011;40161;39.768;2.722;2023-11-21T06:38:18;5.00;;;1.20;;
54247;SDS011;40161;39.768;2.722;2023-11-21T06:40:44;3.22;;;1.02;;
54247;SDS011;40161;39.768;2.722;2023-11-21T06:43:10;5.28;;;1.00;;
54247;SDS011;40161;39.768;2.722;2023-11-21T06:45:36;2.28;;;1.05;;
54247;SDS011;40161;39.768;2.722;2023-11-21T06:48:01;6.80;;;1.33;;
54247;SDS011;40161;39.768;2.722;2023-11-21T06:50:27;4.60;;;1.38;;
54247;SDS011;40161;39.768;2.722;2023-11-21T06:52:53;7.82;;;2.00;;
54247;SDS011;40161;39.768;2.722;2023-11-21T06:55:18;6.90;;;2.30;;
54247;SDS011;40161;39.768;2.722;2023-11-21T06:57:44;8.43;;;3.90;;
54247;SDS011;40161;39.768;2.722;2023-11-21T07:00:10;8.70;;;3.33;;
54247;SDS011;40161;39.768;2.722;2023-11-21T07:02:36;5.40;;;1.90;;
54247;SDS011;40161;39.768;2.722;2023-11-21T07:05:02;4.60;;;1.90;;
54247;SDS011;40161;39.768;2.722;2023-11-21T07:07:28;5.25;;;1.40;;
54247;SDS011;40161;39.768;2.722;2023-11-21T07:09:53;7.03;;;2.60;;
54247;SDS011;40161;39.768;2.722;2023-11-21T07:12:19;5.30;;;1.48;;
54247;SDS011;40161;39.768;2.722;2023-11-21T07:14:44;4.57;;;1.30;;
54247;SDS011;40161;39.768;2.722;2023-11-21T07:17:11;5.70;;;1.17;;
54247;SDS011;40161;39.768;2.722;2023-11-21T07:19:37;6.43;;;1.33;;
54247;SDS011;40161;39.768;2.722;2023-11-21T07:22:03;6.50;;;1.30;;
54247;SDS011;40161;39.768;2.722;2023-11-21T07:24:31;4.15;;;1.40;;
54247;SDS011;40161;39.768;2.722;2023-11-21T07:26:56;5.13;;;1.98;;
54247;SDS011;40161;39.768;2.722;2023-11-21T07:29:25;5.20;;;1.08;;
54247;SDS011;40161;39.768;2.722;2023-11-21T07:31:52;4.78;;;1.10;;
54247;SDS011;40161;39.768;2.722;2023-11-21T07:34:19;10.45;;;1.60;;
54247;SDS011;40161;39.768;2.722;2023-11-21T07:36:45;7.15;;;0.98;;
54247;SDS011;40161;39.768;2.722;2023-11-21T07:39:11;5.35;;;1.17;;
54247;SDS011;40161;39.768;2.722;2023-11-21T07:41:37;6.18;;;1.23;;
54247;SDS011;40161;39.768;2.722;2023-11-21T07:44:04;6.25;;;1.30;;
54247;SDS011;40161;39.768;2.722;2023-11-21T07:46:30;7.22;;;1.30;;
54247;SDS011;40161;39.768;2.722;2023-11-21T07:48:55;5.07;;;1.20;;
54247;SDS011;40161;39.768;2.722;2023-11-21T07:51:21;5.55;;;1.48;;
54247;SDS011;40161;39.768;2.722;2023-11-21T07:53:47;6.20;;;1.20;;
54247;SDS011;40161;39.768;2.722;2023-11-21T07:56:12;6.90;;;1.48;;
54247;SDS011;40161;39.768;2.722;2023-11-21T07:58:38;6.80;;;1.30;;
54247;SDS011;40161;39.768;2.722;2023-11-21T08:01:04;5.97;;;1.60;;
54247;SDS011;40161;39.768;2.722;2023-11-21T08:03:30;6.13;;;1.40;;
54247;SDS011;40161;39.768;2.722;2023-11-21T08:05:59;4.07;;;0.98;;
54247;SDS011;40161;39.768;2.722;2023-11-21T08:08:25;7.88;;;1.20;;
54247;SDS011;40161;39.768;2.722;2023-11-21T08:10:51;8.20;;;1.45;;
54247;SDS011;40161;39.768;2.722;2023-11-21T08:13:26;7.55;;;1.25;;
54247;SDS011;40161;39.768;2.722;2023-11-21T08:15:56;5.07;;;1.02;;
54247;SDS011;40161;39.768;2.722;2023-11-21T08:18:26;7.80;;;1.25;;
54247;SDS011;40161;39.768;2.722;2023-11-21T08:20:52;7.50;;;1.10;;
54247;SDS011;40161;39.768;2.722;2023-11-21T08:23:20;5.90;;;1.10;;
54247;SDS011;40161;39.768;2.722;2023-11-21T08:25:46;7.50;;;2.00;;
54247;SDS011;40161;39.768;2.722;2023-11-21T08:28:12;6.07;;;1.20;;
54247;SDS011;40161;39.768;2.722;2023-11-21T08:30:39;6.35;;;1.30;;
54247;SDS011;40161;39.768;2.722;2023-11-21T08:33:06;7.30;;;1.42;;
54247;SDS011;40161;39.768;2.722;2023-11-21T08:35:33;7.97;;;1.27;;
54247;SDS011;40161;39.768;2.722;2023-11-21T08:37:59;8.35;;;1.52;;
54247;SDS011;40161;39.768;2.722;2023-11-21T08:40:25;7.30;;;1.45;;
54247;SDS011;40161;39.768;2.722;2023-11-21T08:42:50;8.98;;;1.92;;
54247;SDS011;40161;39.768;2.722;2023-11-21T08:45:17;8.20;;;1.80;;
54247;SDS011;40161;39.768;2.722;2023-11-21T08:47:43;6.93;;;1.83;;
54247;SDS011;40161;39.768;2.722;2023-11-21T08:50:09;8.35;;;2.03;;
54247;SDS011;40161;39.768;2.722;2023-11-21T08:52:37;7.03;;;1.73;;
54247;SDS011;40161;39.768;2.722;2023-11-21T08:55:06;5.57;;;1.70;;
54247;SDS011;40161;39.768;2.722;2023-11-21T08:57:33;8.65;;;1.50;;
54247;SDS011;40161;39.768;2.722;2023-11-21T09:00:03;5.80;;;1.27;;
54247;SDS011;40161;39.768;2.722;2023-11-21T09:02:32;8.35;;;1.73;;
54247;SDS011;40161;39.768;2.722;2023-11-21T09:04:59;6.43;;;1.30;;
54247;SDS011;40161;39.768;2.722;2023-11-21T09:07:28;6.78;;;1.40;;
54247;SDS011;40161;39.768;2.722;2023-11-21T09:09:54;5.63;;;1.25;;
54247;SDS011;40161;39.768;2.722;2023-11-21T09:12:20;6.32;;;1.27;;
54247;SDS011;40161;39.768;2.722;2023-11-21T09:14:46;6.65;;;1.38;;
54247;SDS011;40161;39.768;2.722;2023-11-21T09:17:11;5.20;;;1.25;;
54247;SDS011;40161;39.768;2.722;2023-11-21T09:19:37;4.97;;;1.48;;
54247;SDS011;40161;39.768;2.722;2023-11-21T09:22:03;6.18;;;1.50;;
54247;SDS011;40161;39.768;2.722;2023-11-21T09:24:30;9.05;;;1.90;;
54247;SDS011;40161;39.768;2.722;2023-11-21T09:26:57;5.80;;;1.90;;
54247;SDS011;40161;39.768;2.722;2023-11-21T09:29:22;6.63;;;1.30;;
54247;SDS011;40161;39.768;2.722;2023-11-21T09:31:48;6.50;;;1.17;;
54247;SDS011;40161;39.768;2.722;2023-11-21T09:34:16;6.10;;;1.30;;
54247;SDS011;40161;39.768;2.722;2023-11-21T09:36:44;5.80;;;1.10;;
54247;SDS011;40161;39.768;2.722;2023-11-21T09:39:10;5.32;;;1.38;;
54247;SDS011;40161;39.768;2.722;2023-11-21T09:41:52;8.05;;;1.50;;
54247;SDS011;40161;39.768;2.722;2023-11-21T09:44:31;5.93;;;1.63;;
54247;SDS011;40161;39.768;2.722;2023-11-21T09:47:00;8.88;;;1.42;;
54247;SDS011;40161;39.768;2.722;2023-11-21T09:49:27;8.93;;;1.33;;
54247;SDS011;40161;39.768;2.722;2023-11-21T09:51:57;6.22;;;1.20;;
54247;SDS011;40161;39.768;2.722;2023-11-21T09:54:28;7.93;;;1.30;;
54247;SDS011;40161;39.768;2.722;2023-11-21T09:56:54;4.10;;;1.20;;
54247;SDS011;40161;39.768;2.722;2023-11-21T09:59:20;7.85;;;1.08;;
54247;SDS011;40161;39.768;2.722;2023-11-21T10:01:46;8.25;;;1.48;;
54247;SDS011;40161;39.768;2.722;2023-11-21T10:04:12;7.05;;;1.13;;
54247;SDS011;40161;39.768;2.722;2023-11-21T10:06:39;5.22;;;1.40;;
54247;SDS011;40161;39.768;2.722;2023-11-21T10:09:11;6.70;;;1.42;;
54247;SDS011;40161;39.768;2.722;2023-11-21T10:11:42;8.07;;;1.30;;
54247;SDS011;40161;39.768;2.722;2023-11-21T10:14:11;6.60;;;1.20;;
54247;SDS011;40161;39.768;2.722;2023-11-21T10:16:38;5.55;;;1.73;;
54247;SDS011;40161;39.768;2.722;2023-11-21T10:19:05;9.77;;;1.60;;
54247;SDS011;40161;39.768;2.722;2023-11-21T10:21:34;24.00;;;12.68;;
54247;SDS011;40161;39.768;2.722;2023-11-21T10:24:00;18.25;;;10.10;;
54247;SDS011;40161;39.768;2.722;2023-11-21T10:26:26;11.93;;;6.43;;
54247;SDS011;40161;39.768;2.722;2023-11-21T10:29:00;8.43;;;4.45;;
54247;SDS011;40161;39.768;2.722;2023-11-21T10:31:30;11.55;;;4.82;;
54247;SDS011;40161;39.768;2.722;2023-11-21T10:36:40;13.85;;;3.88;;
54247;SDS011;40161;39.768;2.722;2023-11-21T10:39:06;8.40;;;2.45;;
54247;SDS011;40161;39.768;2.722;2023-11-21T10:41:33;5.15;;;1.27;;
54247;SDS011;40161;39.768;2.722;2023-11-21T10:44:00;9.30;;;1.38;;
54247;SDS011;40161;39.768;2.722;2023-11-21T10:46:29;6.97;;;1.85;;
54247;SDS011;40161;39.768;2.722;2023-11-21T10:48:55;5.57;;;1.60;;
54247;SDS011;40161;39.768;2.722;2023-11-21T10:51:25;6.28;;;1.92;;
54247;SDS011;40161;39.768;2.722;2023-11-21T10:53:52;5.07;;;1.50;;
54247;SDS011;40161;39.768;2.722;2023-11-21T10:56:18;5.93;;;1.38;;
54247;SDS011;40161;39.768;2.722;2023-11-21T10:58:47;4.38;;;1.40;;
54247;SDS011;40161;39.768;2.722;2023-11-21T11:01:16;6.05;;;1.63;;
54247;SDS011;40161;39.768;2.722;2023-11-21T11:03:44;6.65;;;2.20;;
54247;SDS011;40161;39.768;2.722;2023-11-21T11:06:09;7.60;;;1.67;;
54247;SDS011;40161;39.768;2.722;2023-11-21T11:08:37;10.20;;;2.30;;
54247;SDS011;40161;39.768;2.722;2023-11-21T11:11:06;11.27;;;4.07;;
54247;SDS011;40161;39.768;2.722;2023-11-21T11:13:32;7.18;;;2.40;;
54247;SDS011;40161;39.768;2.722;2023-11-21T11:15:58;7.68;;;2.00;;
54247;SDS011;40161;39.768;2.722;2023-11-21T11:18:29;6.60;;;1.98;;
54247;SDS011;40161;39.768;2.722;2023-11-21T11:20:57;5.18;;;1.77;;
54247;SDS011;40161;39.768;2.722;2023-11-21T11:24:16;6.03;;;1.65;;
54247;SDS011;40161;39.768;2.722;2023-11-21T11:26:31;5.25;;;1.58;;
54247;SDS011;40161;39.768;2.722;2023-11-21T11:29:43;9.38;;;1.60;;
54247;SDS011;40161;39.768;2.722;2023-11-21T11:37:41;3.70;;;0.82;;
54247;SDS011;40161;39.768;2.722;2023-11-21T11:40:11;8.18;;;1.42;;
54247;SDS011;40161;39.768;2.722;2023-11-21T11:42:37;5.07;;;1.20;;
54247;SDS011;40161;39.768;2.722;2023-11-21T11:45:06;6.72;;;1.27;;
54247;SDS011;40161;39.768;2.722;2023-11-21T11:47:43;5.35;;;1.10;;
54247;SDS011;40161;39.768;2.722;2023-11-21T11:50:10;5.05;;;1.38;;
54247;SDS011;40161;39.768;2.722;2023-11-21T11:52:46;6.22;;;1.60;;
54247;SDS011;40161;39.768;2.722;2023-11-21T11:55:14;6.05;;;1.48;;
54247;SDS011;40161;39.768;2.722;2023-11-21T11:57:44;7.72;;;2.10;;
54247;SDS011;40161;39.768;2.722;2023-11-21T12:02:53;8.23;;;2.15;;
54247;SDS011;40161;39.768;2.722;2023-11-21T12:07:58;5.68;;;1.65;;
54247;SDS011;40161;39.768;2.722;2023-11-21T12:10:35;6.22;;;1.63;;
54247;SDS011;40161;39.768;2.722;2023-11-21T12:13:06;4.80;;;1.40;;
54247;SDS011;40161;39.768;2.722;2023-11-21T12:15:33;5.88;;;1.25;;
54247;SDS011;40161;39.768;2.722;2023-11-21T12:18:00;6.55;;;1.50;;
54247;SDS011;40161;39.768;2.722;2023-11-21T12:20:26;6.07;;;1.35;;
54247;SDS011;40161;39.768;2.722;2023-11-21T12:22:53;7.13;;;1.10;;
54247;SDS011;40161;39.768;2.722;2023-11-21T12:25:25;5.50;;;1.50;;
54247;SDS011;40161;39.768;2.722;2023-11-21T12:27:57;7.30;;;1.58;;
54247;SDS011;40161;39.768;2.722;2023-11-21T12:30:26;6.55;;;1.58;;
54247;SDS011;40161;39.768;2.722;2023-11-21T12:32:55;4.85;;;1.30;;
54247;SDS011;40161;39.768;2.722;2023-11-21T12:35:26;6.72;;;1.20;;
54247;SDS011;40161;39.768;2.722;2023-11-21T12:37:54;4.07;;;1.42;;
54247;SDS011;40161;39.768;2.722;2023-11-21T12:40:22;8.13;;;1.52;;
54247;SDS011;40161;39.768;2.722;2023-11-21T12:42:48;5.82;;;1.30;;
54247;SDS011;40161;39.768;2.722;2023-11-21T12:47:50;5.75;;;1.20;;
54247;SDS011;40161;39.768;2.722;2023-11-21T12:50:20;2.83;;;0.95;;
54247;SDS011;40161;39.768;2.722;2023-11-21T12:52:51;7.03;;;1.40;;
54247;SDS011;40161;39.768;2.722;2023-11-21T12:55:21;7.65;;;1.42;;
54247;SDS011;40161;39.768;2.722;2023-11-21T12:57:48;4.55;;;1.15;;
54247;SDS011;40161;39.768;2.722;2023-11-21T13:00:17;4.30;;;1.10;;
54247;SDS011;40161;39.768;2.722;2023-11-21T13:02:56;4.68;;;1.10;;
54247;SDS011;40161;39.768;2.722;2023-11-21T13:05:27;4.00;;;1.10;;
54247;SDS011;40161;39.768;2.722;2023-11-21T13:07:55;4.10;;;1.23;;
54247;SDS011;40161;39.768;2.722;2023-11-21T13:10:23;5.05;;;1.40;;
54247;SDS011;40161;39.768;2.722;2023-11-21T13:12:59;7.15;;;1.55;;
54247;SDS011;40161;39.768;2.722;2023-11-21T13:15:46;3.80;;;1.13;;
54247;SDS011;40161;39.768;2.722;2023-11-21T13:18:18;4.47;;;1.13;;
54247;SDS011;40161;39.768;2.722;2023-11-21T13:20:44;5.82;;;1.20;;
54247;SDS011;40161;39.768;2.722;2023-11-21T13:23:11;4.93;;;1.30;;
54247;SDS011;40161;39.768;2.722;2023-11-21T13:25:37;6.18;;;1.40;;
54247;SDS011;40161;39.768;2.722;2023-11-21T13:28:06;4.18;;;0.80;;
54247;SDS011;40161;39.768;2.722;2023-11-21T13:30:32;6.38;;;1.10;;
54247;SDS011;40161;39.768;2.722;2023-11-21T13:32:59;3.28;;;1.00;;
54247;SDS011;40161;39.768;2.722;2023-11-21T13:35:31;10.18;;;3.70;;
54247;SDS011;40161;39.768;2.722;2023-11-21T13:38:14;23.83;;;13.50;;
54247;SDS011;40161;39.768;2.722;2023-11-21T13:40:54;9.17;;;4.10;;
54247;SDS011;40161;39.768;2.722;2023-11-21T13:43:23;8.02;;;1.90;;
54247;SDS011;40161;39.768;2.722;2023-11-21T13:45:51;8.17;;;2.57;;
54247;SDS011;40161;39.768;2.722;2023-11-21T13:48:27;7.45;;;2.50;;
54247;SDS011;40161;39.768;2.722;2023-11-21T13:50:59;4.05;;;1.40;;
54247;SDS011;40161;39.768;2.722;2023-11-21T13:53:33;3.78;;;1.20;;
54247;SDS011;40161;39.768;2.722;2023-11-21T13:56:02;6.50;;;1.40;;
54247;SDS011;40161;39.768;2.722;2023-11-21T13:58:27;8.15;;;2.08;;
54247;SDS011;40161;39.768;2.722;2023-11-21T14:01:12;4.70;;;1.33;;
54247;SDS011;40161;39.768;2.722;2023-11-21T14:03:56;5.80;;;1.40;;
54247;SDS011;40161;39.768;2.722;2023-11-21T14:06:47;6.80;;;1.50;;
54247;SDS011;40161;39.768;2.722;2023-11-21T14:09:19;4.57;;;1.50;;
54247;SDS011;40161;39.768;2.722;2023-11-21T14:11:51;7.07;;;1.42;;
54247;SDS011;40161;39.768;2.722;2023-11-21T14:14:17;7.30;;;1.45;;
54247;SDS011;40161;39.768;2.722;2023-11-21T14:16:43;5.93;;;1.33;;
54247;SDS011;40161;39.768;2.722;2023-11-21T14:19:09;5.25;;;1.35;;
54247;SDS011;40161;39.768;2.722;2023-11-21T14:21:41;5.47;;;1.23;;
54247;SDS011;40161;39.768;2.722;2023-11-21T14:24:10;3.92;;;1.60;;
54247;SDS011;40161;39.768;2.722;2023-11-21T14:26:43;5.05;;;1.45;;
54247;SDS011;40161;39.768;2.722;2023-11-21T14:29:13;6.13;;;1.42;;
54247;SDS011;40161;39.768;2.722;2023-11-21T14:31:42;3.63;;;0.90;;
54247;SDS011;40161;39.768;2.722;2023-11-21T14:34:08;17.90;;;13.65;;
54247;SDS011;40161;39.768;2.722;2023-11-21T14:36:34;5.75;;;2.40;;
54247;SDS011;40161;39.768;2.722;2023-11-21T14:39:10;5.43;;;0.98;;
54247;SDS011;40161;39.768;2.722;2023-11-21T14:41:48;7.85;;;1.08;;
54247;SDS011;40161;39.768;2.722;2023-11-21T14:44:14;4.53;;;0.98;;
54247;SDS011;40161;39.768;2.722;2023-11-21T14:46:40;5.30;;;1.40;;
54247;SDS011;40161;39.768;2.722;2023-11-21T14:49:10;5.78;;;1.17;;
54247;SDS011;40161;39.768;2.722;2023-11-21T14:51:49;3.50;;;1.20;;
54247;SDS011;40161;39.768;2.722;2023-11-21T14:54:30;4.35;;;1.10;;
54247;SDS011;40161;39.768;2.722;2023-11-21T14:57:09;4.45;;;1.17;;
54247;SDS011;40161;39.768;2.722;2023-11-21T14:59:47;4.18;;;0.98;;
54247;SDS011;40161;39.768;2.722;2023-11-21T15:02:17;5.60;;;1.10;;
54247;SDS011;40161;39.768;2.722;2023-11-21T15:05:02;4.47;;;1.55;;
54247;SDS011;40161;39.768;2.722;2023-11-21T15:07:28;6.13;;;1.10;;
54247;SDS011;40161;39.768;2.722;2023-11-21T15:09:54;4.20;;;1.23;;